Time;durP1;ratioP1;P1;durP2;ratioP2;P2;SDS_P1;SDS_P2;PMS_P1;PMS_P2;Temp;Humidity;BMP_temperature;BMP_pressure;BME280_temperature;BME280_humidity;BME280_pressure;Samples;Min_cycle;Max_cycle;Signal;HPM_P1;HPM_P2
2021/12/28 00:01:27;;;;;;;23.40;15.02;;;4.20;99.90;;;;;;4986295;28;20089;-66
2021/12/28 00:03:53;;;;;;;24.52;15.52;;;4.20;99.90;;;;;;4988479;28;20054;-66
2021/12/28 00:06:19;;;;;;;21.90;14.38;;;4.20;99.90;;;;;;4987974;28;20081;-66
2021/12/28 00:08:46;;;;;;;21.88;13.88;;;4.20;99.90;;;;;;4988256;28;20045;-66
2021/12/28 00:11:12;;;;;;;21.55;14.93;;;4.20;99.90;;;;;;4984844;28;20046;-67
2021/12/28 00:13:39;;;;;;;19.92;14.70;;;5.50;99.90;;;;;;4986092;28;20467;-66
2021/12/28 00:18:32;;;;;;;20.73;14.43;;;4.20;99.90;;;;;;4990166;28;20053;-66
2021/12/28 00:21:00;;;;;;;25.48;15.43;;;4.30;99.90;;;;;;4971053;28;20101;-67
2021/12/28 00:23:36;;;;;;;21.58;14.98;;;4.30;99.90;;;;;;4988427;28;20042;-66
2021/12/28 00:26:04;;;;;;;25.77;16.52;;;4.30;99.90;;;;;;4990095;28;20157;-66
2021/12/28 00:28:30;;;;;;;24.27;14.90;;;4.40;99.90;;;;;;4981338;28;20114;-66
2021/12/28 00:30:56;;;;;;;25.13;16.38;;;4.30;99.90;;;;;;4988385;28;20133;-66
2021/12/28 00:33:24;;;;;;;24.00;16.13;;;4.30;99.90;;;;;;4989021;28;20141;-66
2021/12/28 00:35:50;;;;;;;27.23;16.90;;;4.30;99.90;;;;;;4988386;28;20089;-66
2021/12/28 00:38:19;;;;;;;26.20;16.73;;;4.40;99.90;;;;;;4989426;28;20077;-66
2021/12/28 00:40:49;;;;;;;27.52;17.48;;;4.40;99.90;;;;;;4990093;28;20046;-66
2021/12/28 00:43:16;;;;;;;29.52;17.98;;;4.30;99.90;;;;;;4986935;28;20477;-66
2021/12/28 00:45:42;;;;;;;28.05;18.50;;;4.30;99.90;;;;;;4989121;28;20046;-66
2021/12/28 00:48:08;;;;;;;28.92;19.50;;;4.20;99.90;;;;;;4988913;28;20043;-66
2021/12/28 00:50:34;;;;;;;31.45;19.88;;;4.30;99.90;;;;;;4986952;28;20402;-66
2021/12/28 00:53:00;;;;;;;36.60;20.10;;;4.30;99.90;;;;;;4991481;28;20141;-66
2021/12/28 00:55:26;;;;;;;29.52;19.13;;;4.20;99.90;;;;;;4989670;28;20148;-66
2021/12/28 00:57:53;;;;;;;32.33;19.38;;;4.20;99.90;;;;;;4988352;28;20038;-66
2021/12/28 01:00:23;;;;;;;31.20;19.75;;;4.30;99.90;;;;;;4970261;28;20046;-66
2021/12/28 01:02:49;;;;;;;33.85;20.58;;;4.30;99.90;;;;;;4971346;28;20060;-66
2021/12/28 01:05:16;;;;;;;34.30;21.10;;;4.20;99.90;;;;;;4987514;28;20394;-66
2021/12/28 01:07:42;;;;;;;33.92;21.27;;;4.30;99.90;;;;;;4988770;28;20383;-66
2021/12/28 01:10:12;;;;;;;31.88;19.80;;;4.30;99.90;;;;;;4986554;28;20054;-66
2021/12/28 01:12:38;;;;;;;41.67;21.27;;;4.30;99.90;;;;;;4986638;28;20041;-66
2021/12/28 01:15:06;;;;;;;39.58;22.02;;;4.30;99.90;;;;;;4989862;28;20050;-66
2021/12/28 01:17:33;;;;;;;40.72;22.80;;;4.30;99.90;;;;;;4989815;28;20049;-66
2021/12/28 01:19:59;;;;;;;42.67;22.92;;;4.30;99.90;;;;;;4989669;28;20050;-66
2021/12/28 01:22:24;;;;;;;39.28;22.30;;;4.30;99.90;;;;;;4986402;28;20470;-66
2021/12/28 01:24:50;;;;;;;42.88;23.85;;;4.30;99.90;;;;;;4986823;28;20050;-66
2021/12/28 01:27:16;;;;;;;49.47;23.85;;;4.30;99.90;;;;;;4987849;28;20057;-67
2021/12/28 01:29:41;;;;;;;49.78;24.75;;;4.30;99.90;;;;;;4987833;28;20491;-66
2021/12/28 01:32:08;;;;;;;49.80;24.58;;;4.30;99.90;;;;;;4988829;28;20456;-66
2021/12/28 01:34:34;;;;;;;57.72;27.45;;;4.40;99.90;;;;;;4989178;28;20442;-66
2021/12/28 01:37:00;;;;;;;49.42;25.25;;;4.40;99.90;;;;;;4989198;28;20113;-66
2021/12/28 01:39:26;;;;;;;49.95;25.10;;;4.40;99.90;;;;;;4988741;28;20483;-66
2021/12/28 01:41:51;;;;;;;59.38;27.50;;;4.70;99.90;;;;;;4990376;28;20113;-66
2021/12/28 01:44:17;;;;;;;65.68;29.63;;;4.40;99.90;;;;;;4987030;28;20104;-67
2021/12/28 01:46:43;;;;;;;68.82;30.17;;;4.50;99.90;;;;;;4987343;28;20045;-66
2021/12/28 01:49:10;;;;;;;86.22;31.77;;;4.60;99.90;;;;;;4988764;28;20636;-66
2021/12/28 01:51:35;;;;;;;69.57;30.00;;;4.60;99.90;;;;;;4988140;28;20112;-66
2021/12/28 01:54:03;;;;;;;74.60;31.85;;;4.60;99.90;;;;;;4986416;28;20057;-66
2021/12/28 01:56:37;;;;;;;69.90;32.33;;;4.60;99.90;;;;;;4970365;28;20100;-66
2021/12/28 01:59:03;;;;;;;79.70;32.40;;;4.70;99.90;;;;;;4988328;28;20097;-66
2021/12/28 02:01:29;;;;;;;82.75;33.28;;;4.70;99.90;;;;;;4987038;28;20399;-66
2021/12/28 02:03:55;;;;;;;75.82;31.42;;;4.80;99.90;;;;;;4990071;28;20039;-66
2021/12/28 02:06:25;;;;;;;80.70;33.05;;;4.80;99.90;;;;;;4990705;28;20042;-66
2021/12/28 02:08:54;;;;;;;104.65;35.20;;;4.80;99.90;;;;;;4991690;28;20045;-66
2021/12/28 02:11:21;;;;;;;108.35;36.33;;;4.80;99.90;;;;;;4991203;28;20132;-66
2021/12/28 02:13:50;;;;;;;105.00;34.78;;;4.90;99.90;;;;;;4990124;28;20126;-66
2021/12/28 02:16:16;;;;;;;107.65;35.72;;;4.90;99.90;;;;;;4992916;28;20053;-66
2021/12/28 02:18:42;;;;;;;117.13;37.08;;;4.90;99.90;;;;;;4974176;28;20043;-66
2021/12/28 02:21:08;;;;;;;125.00;38.30;;;5.00;99.90;;;;;;4989438;28;20067;-67
2021/12/28 02:23:34;;;;;;;105.78;36.45;;;5.00;99.90;;;;;;4988978;28;20054;-66
2021/12/28 02:26:00;;;;;;;129.00;40.58;;;5.10;99.90;;;;;;4975362;28;20042;-66
2021/12/28 02:28:25;;;;;;;114.85;37.83;;;5.10;99.90;;;;;;4990629;28;20434;-66
2021/12/28 02:30:54;;;;;;;135.75;39.47;;;5.20;99.90;;;;;;4990692;28;20509;-66
2021/12/28 02:33:23;;;;;;;170.45;41.22;;;5.20;99.90;;;;;;4991263;28;20089;-66
2021/12/28 02:35:49;;;;;;;122.38;37.95;;;5.20;99.90;;;;;;4989556;28;20086;-66
2021/12/28 02:38:15;;;;;;;174.15;40.97;;;5.20;99.90;;;;;;4991016;28;20046;-66
2021/12/28 02:40:42;;;;;;;134.18;38.55;;;5.20;99.90;;;;;;4991153;28;20049;-66
2021/12/28 02:43:12;;;;;;;118.70;39.38;;;5.30;99.90;;;;;;4990318;28;20070;-66
2021/12/28 02:45:52;;;;;;;168.80;40.28;;;5.30;99.90;;;;;;4991331;28;20065;-66
2021/12/28 02:48:18;;;;;;;167.02;42.58;;;5.40;99.90;;;;;;4991776;28;20149;-66
2021/12/28 02:50:48;;;;;;;297.83;44.25;;;5.30;99.90;;;;;;4989453;28;20049;-66
2021/12/28 02:53:16;;;;;;;188.40;42.50;;;5.40;99.90;;;;;;4989133;28;20050;-66
2021/12/28 02:55:42;;;;;;;141.05;41.90;;;5.40;99.90;;;;;;4972034;28;20406;-66
2021/12/28 02:58:22;;;;;;;231.82;43.72;;;5.40;99.90;;;;;;4989351;28;20054;-66
2021/12/28 03:00:58;;;;;;;144.40;41.20;;;5.40;99.90;;;;;;4990837;28;20399;-66
2021/12/28 03:03:26;;;;;;;281.92;44.83;;;5.40;99.90;;;;;;4972369;28;20057;-66
2021/12/28 03:05:55;;;;;;;153.30;41.60;;;5.40;99.90;;;;;;4988365;28;20368;-66
2021/12/28 03:08:24;;;;;;;225.18;44.30;;;5.30;99.90;;;;;;4988553;28;20043;-66
2021/12/28 03:10:51;;;;;;;202.52;41.10;;;5.40;99.90;;;;;;4989635;28;20053;-66
2021/12/28 03:13:22;;;;;;;167.57;43.35;;;5.40;99.90;;;;;;4989951;28;20077;-66
2021/12/28 03:15:49;;;;;;;250.15;43.55;;;5.40;99.90;;;;;;4989774;28;20089;-66
2021/12/28 03:18:15;;;;;;;268.35;44.97;;;5.40;99.90;;;;;;4989706;28;20491;-66
2021/12/28 03:20:40;;;;;;;204.65;43.72;;;5.40;99.90;;;;;;4990128;28;20067;-66
2021/12/28 03:23:06;;;;;;;185.57;43.03;;;5.40;99.90;;;;;;4990296;28;20625;-66
2021/12/28 03:25:32;;;;;;;222.45;43.13;;;5.40;99.90;;;;;;4988566;28;20050;-66
2021/12/28 03:28:00;;;;;;;179.82;41.40;;;5.40;99.90;;;;;;4988511;28;20376;-66
2021/12/28 03:30:25;;;;;;;296.35;41.78;;;5.40;99.90;;;;;;4989213;28;20534;-66
2021/12/28 03:32:51;;;;;;;129.40;37.40;;;5.40;99.90;;;;;;4989431;28;20073;-66
2021/12/28 03:35:18;;;;;;;138.70;37.22;;;5.30;99.90;;;;;;4988245;28;20069;-67
2021/12/28 03:37:44;;;;;;;146.57;37.35;;;5.30;99.90;;;;;;4989645;28;20052;-66
2021/12/28 03:40:12;;;;;;;139.63;36.40;;;5.30;99.90;;;;;;4992693;28;20050;-66
2021/12/28 03:42:39;;;;;;;119.88;35.97;;;5.30;99.90;;;;;;4984060;28;20077;-66
2021/12/28 03:45:08;;;;;;;147.90;35.60;;;5.20;99.90;;;;;;4991977;28;20050;-66
2021/12/28 03:47:34;;;;;;;129.65;35.10;;;5.20;99.90;;;;;;4990909;28;20046;-66
2021/12/28 03:50:00;;;;;;;158.82;37.05;;;5.20;99.90;;;;;;4988060;28;20096;-66
2021/12/28 03:52:25;;;;;;;169.90;36.83;;;5.20;99.90;;;;;;4988401;28;20046;-66
2021/12/28 03:54:51;;;;;;;163.10;37.65;;;6.00;99.90;;;;;;4988243;28;20054;-66
2021/12/28 03:57:17;;;;;;;224.27;40.40;;;5.10;99.90;;;;;;4988861;28;20450;-66
2021/12/28 03:59:43;;;;;;;202.85;38.95;;;5.10;99.90;;;;;;4988148;28;20081;-66
2021/12/28 04:02:09;;;;;;;124.63;36.22;;;5.10;99.90;;;;;;4989847;28;20042;-66
2021/12/28 04:04:34;;;;;;;149.68;38.40;;;5.10;99.90;;;;;;4989246;28;20116;-66
2021/12/28 04:07:03;;;;;;;155.65;38.58;;;5.10;99.90;;;;;;4988064;28;20034;-66
2021/12/28 04:09:57;;;;;;;180.70;37.80;;;5.10;99.90;;;;;;4988734;28;20268;-66
2021/12/28 04:12:23;;;;;;;225.48;39.17;;;5.10;99.90;;;;;;4988139;28;20076;-66
2021/12/28 04:14:48;;;;;;;161.95;39.30;;;5.10;99.90;;;;;;4987595;28;20034;-66
2021/12/28 04:17:14;;;;;;;158.38;39.88;;;5.10;99.90;;;;;;4989399;28;20057;-66
2021/12/28 04:19:40;;;;;;;180.38;40.97;;;5.20;99.90;;;;;;4988167;28;20117;-66
2021/12/28 04:22:07;;;;;;;126.35;37.92;;;5.20;99.90;;;;;;4988620;28;20494;-66
2021/12/28 04:24:32;;;;;;;136.98;39.00;;;5.20;99.90;;;;;;4988555;28;20220;-66
2021/12/28 04:26:58;;;;;;;161.80;40.28;;;5.20;99.90;;;;;;4988867;28;20121;-66
2021/12/28 04:29:24;;;;;;;215.85;42.55;;;5.30;99.90;;;;;;4988345;28;20046;-66
2021/12/28 04:31:50;;;;;;;163.65;40.10;;;5.30;99.90;;;;;;4985249;28;20046;-66
2021/12/28 04:34:16;;;;;;;194.75;42.08;;;5.30;99.90;;;;;;4979980;28;20047;-66
2021/12/28 04:36:41;;;;;;;186.68;39.92;;;5.30;99.90;;;;;;4989956;28;20073;-68
2021/12/28 04:39:07;;;;;;;244.75;43.85;;;5.30;99.90;;;;;;4988110;28;20069;-67
2021/12/28 04:41:34;;;;;;;145.18;38.00;;;5.30;99.90;;;;;;4988492;28;20519;-67
2021/12/28 04:44:01;;;;;;;214.38;39.83;;;5.30;99.90;;;;;;4988829;28;20398;-67
2021/12/28 04:46:29;;;;;;;227.82;40.45;;;5.30;99.90;;;;;;4988522;28;20034;-67
2021/12/28 04:48:55;;;;;;;284.92;44.58;;;5.40;99.90;;;;;;4988610;28;20046;-67
2021/12/28 04:51:22;;;;;;;125.05;36.58;;;5.40;99.90;;;;;;4989422;28;20045;-67
2021/12/28 04:53:49;;;;;;;156.18;40.45;;;5.40;99.90;;;;;;4989205;28;20129;-66
2021/12/28 04:56:14;;;;;;;207.82;40.13;;;5.40;99.90;;;;;;4987762;28;20062;-67
2021/12/28 04:58:40;;;;;;;196.07;40.53;;;5.40;99.90;;;;;;4988270;28;20542;-67
2021/12/28 05:01:06;;;;;;;226.18;41.50;;;5.40;99.90;;;;;;4986991;28;20086;-67
2021/12/28 05:03:31;;;;;;;236.63;42.45;;;5.40;99.90;;;;;;4977254;28;20489;-67
2021/12/28 05:05:57;;;;;;;229.32;42.20;;;5.40;99.90;;;;;;4990448;28;20037;-66
2021/12/28 05:08:23;;;;;;;161.95;39.00;;;5.40;99.90;;;;;;4987386;28;20557;-67
2021/12/28 05:10:51;;;;;;;215.07;40.60;;;6.60;99.90;;;;;;4981093;28;20057;-66
2021/12/28 05:13:18;;;;;;;201.95;41.05;;;5.40;99.90;;;;;;4987382;28;20042;-67
2021/12/28 05:15:45;;;;;;;265.40;43.58;;;5.40;99.90;;;;;;4989048;28;20043;-67
2021/12/28 05:18:13;;;;;;;289.02;45.38;;;5.50;99.90;;;;;;4988198;28;20042;-67
2021/12/28 05:20:39;;;;;;;213.02;41.17;;;5.50;99.90;;;;;;4988943;28;20125;-67
2021/12/28 05:23:05;;;;;;;211.15;42.42;;;5.50;99.90;;;;;;4987734;28;20069;-67
2021/12/28 05:25:32;;;;;;;268.90;42.22;;;5.50;99.90;;;;;;4986830;28;20050;-67
2021/12/28 05:27:58;;;;;;;241.07;42.13;;;5.50;99.90;;;;;;4987482;28;20133;-67
2021/12/28 05:30:24;;;;;;;266.67;40.10;;;5.40;99.90;;;;;;4988192;28;20453;-66
2021/12/28 05:32:49;;;;;;;240.38;40.35;;;5.50;99.90;;;;;;4988397;28;20224;-67
2021/12/28 05:35:15;;;;;;;285.15;42.00;;;5.40;99.90;;;;;;4988475;28;20121;-66
2021/12/28 05:37:41;;;;;;;220.43;41.05;;;4.40;99.90;;;;;;4987870;28;20078;-67
2021/12/28 05:40:08;;;;;;;200.82;40.10;;;5.40;99.90;;;;;;4991363;28;20522;-66
2021/12/28 05:42:34;;;;;;;193.05;37.03;;;5.30;99.90;;;;;;4991323;28;20072;-67
2021/12/28 05:45:00;;;;;;;262.92;41.75;;;5.30;99.90;;;;;;4991464;28;20068;-67
2021/12/28 05:47:26;;;;;;;199.52;39.17;;;5.40;99.90;;;;;;4993093;28;20514;-67
2021/12/28 05:49:52;;;;;;;167.95;37.35;;;5.30;99.90;;;;;;4991944;28;20451;-67
2021/12/28 05:52:17;;;;;;;182.98;37.20;;;5.40;99.90;;;;;;4991109;28;20057;-67
2021/12/28 05:54:43;;;;;;;140.32;36.28;;;5.40;99.90;;;;;;4991553;28;20061;-67
2021/12/28 05:57:09;;;;;;;142.07;34.90;;;5.40;99.90;;;;;;4992603;28;20042;-67
2021/12/28 05:59:35;;;;;;;142.32;36.22;;;5.40;99.90;;;;;;4977769;28;20054;-67
2021/12/28 06:02:01;;;;;;;138.80;36.00;;;5.40;99.90;;;;;;4990628;28;20403;-67
2021/12/28 06:04:26;;;;;;;147.85;34.92;;;5.40;99.90;;;;;;4991436;28;20048;-66
2021/12/28 06:06:52;;;;;;;144.52;33.00;;;5.40;99.90;;;;;;4991493;28;20085;-67
2021/12/28 06:09:18;;;;;;;120.85;32.53;;;5.40;99.90;;;;;;4989894;28;20325;-67
2021/12/28 06:11:43;;;;;;;107.95;32.25;;;6.50;99.90;;;;;;4991100;28;20038;-67
2021/12/28 06:14:09;;;;;;;100.20;31.77;;;5.40;99.90;;;;;;4990051;28;20042;-67
2021/12/28 06:16:35;;;;;;;100.93;31.20;;;6.70;99.90;;;;;;4991618;28;20960;-67
2021/12/28 06:19:02;;;;;;;95.22;31.20;;;5.30;99.90;;;;;;4990930;28;20112;-67
2021/12/28 06:21:31;;;;;;;85.90;30.40;;;5.30;99.90;;;;;;4990774;28;20054;-67
2021/12/28 06:24:00;;;;;;;83.35;29.30;;;5.30;99.90;;;;;;4989431;28;20050;-67
2021/12/28 06:26:30;;;;;;;81.63;28.92;;;5.40;99.90;;;;;;4990957;28;20050;-67
2021/12/28 06:28:56;;;;;;;71.15;28.13;;;5.40;99.90;;;;;;4989771;28;20137;-67
2021/12/28 06:31:22;;;;;;;89.32;28.65;;;5.40;99.90;;;;;;4990368;28;20390;-67
2021/12/28 06:33:48;;;;;;;86.80;28.45;;;5.40;99.90;;;;;;4984210;28;20117;-67
2021/12/28 06:36:14;;;;;;;94.97;29.33;;;5.40;99.90;;;;;;4982854;28;20407;-67
2021/12/28 06:38:40;;;;;;;85.97;28.17;;;5.40;99.90;;;;;;4990907;28;20438;-66
2021/12/28 06:41:08;;;;;;;81.65;26.23;;;5.40;99.90;;;;;;4989306;28;20050;-67
2021/12/28 06:43:34;;;;;;;72.05;26.77;;;5.40;99.90;;;;;;4992367;28;20046;-67
2021/12/28 06:46:00;;;;;;;80.20;28.25;;;5.40;99.90;;;;;;4990735;28;20402;-67
2021/12/28 06:48:25;;;;;;;76.75;28.25;;;5.40;99.90;;;;;;4990295;28;20391;-67
2021/12/28 06:50:51;;;;;;;86.07;29.25;;;5.40;99.90;;;;;;4990639;28;20150;-67
2021/12/28 06:53:17;;;;;;;64.15;23.08;;;5.40;99.90;;;;;;4992096;28;20053;-67
2021/12/28 06:55:43;;;;;;;65.97;26.27;;;5.40;99.90;;;;;;4992243;28;20506;-66
2021/12/28 06:58:08;;;;;;;73.32;27.90;;;5.40;99.90;;;;;;4991609;28;20084;-67
2021/12/28 07:00:34;;;;;;;76.90;27.15;;;5.40;99.90;;;;;;4990170;28;20034;-67
2021/12/28 07:03:00;;;;;;;77.65;26.88;;;5.40;99.90;;;;;;4990700;28;20084;-67
2021/12/28 07:05:26;;;;;;;82.47;28.25;;;5.40;99.90;;;;;;4988667;28;20066;-67
2021/12/28 07:07:51;;;;;;;73.63;26.23;;;5.40;99.90;;;;;;4990679;28;20475;-67
2021/12/28 07:10:20;;;;;;;79.95;27.17;;;5.40;99.90;;;;;;4975879;28;20079;-67
2021/12/28 07:12:50;;;;;;;81.13;27.23;;;5.50;99.90;;;;;;4986395;28;20050;-67
2021/12/28 07:15:17;;;;;;;61.03;24.05;;;5.40;99.90;;;;;;4988001;28;20096;-67
2021/12/28 07:17:42;;;;;;;65.25;25.70;;;5.40;99.90;;;;;;4989644;28;20042;-67
2021/12/28 07:20:09;;;;;;;76.18;25.55;;;5.40;99.90;;;;;;4989949;28;20522;-67
2021/12/28 07:22:35;;;;;;;76.85;27.05;;;5.30;99.90;;;;;;4988633;28;20046;-67
2021/12/28 07:25:01;;;;;;;68.72;26.27;;;5.30;99.90;;;;;;4990705;28;20104;-67
2021/12/28 07:27:27;;;;;;;74.38;27.45;;;5.30;99.90;;;;;;4991025;28;20038;-67
2021/12/28 07:29:52;;;;;;;64.30;25.73;;;5.30;99.90;;;;;;4987923;28;20050;-67
2021/12/28 07:32:18;;;;;;;64.35;25.10;;;5.30;99.90;;;;;;4989917;28;20038;-66
2021/12/28 07:34:44;;;;;;;72.63;27.60;;;5.30;99.90;;;;;;4989016;28;20471;-67
2021/12/28 07:37:09;;;;;;;67.57;26.85;;;5.60;99.90;;;;;;4989357;28;20125;-67
2021/12/28 07:39:35;;;;;;;77.03;27.23;;;6.20;99.90;;;;;;4989026;28;20050;-67
2021/12/28 07:42:01;;;;;;;67.28;27.63;;;5.30;99.90;;;;;;4990033;28;20112;-67
2021/12/28 07:44:26;;;;;;;71.20;27.63;;;5.30;99.90;;;;;;4987566;28;20510;-67
2021/12/28 07:46:52;;;;;;;62.50;26.92;;;5.30;99.90;;;;;;4987711;28;20042;-67
2021/12/28 07:49:18;;;;;;;72.25;27.08;;;5.30;99.90;;;;;;4988367;28;20042;-67
2021/12/28 07:51:43;;;;;;;68.32;26.52;;;5.40;99.90;;;;;;4988943;28;20046;-67
2021/12/28 07:54:09;;;;;;;61.25;24.77;;;5.40;99.90;;;;;;4988832;28;20109;-67
2021/12/28 07:56:35;;;;;;;55.03;25.35;;;5.40;99.90;;;;;;4972510;28;20046;-67
2021/12/28 07:59:01;;;;;;;66.20;26.08;;;5.40;99.90;;;;;;4987965;28;20427;-67
2021/12/28 08:01:27;;;;;;;63.47;24.08;;;5.40;99.90;;;;;;4989763;28;20121;-67
2021/12/28 08:03:52;;;;;;;57.88;24.75;;;5.40;99.90;;;;;;4988989;28;20502;-67
2021/12/28 08:06:18;;;;;;;56.30;24.33;;;5.40;99.90;;;;;;4988233;28;20102;-66
2021/12/28 08:08:43;;;;;;;53.42;23.75;;;5.50;99.90;;;;;;4986965;28;20046;-67
2021/12/28 08:11:09;;;;;;;63.25;23.83;;;5.50;99.90;;;;;;4978900;28;20039;-67
2021/12/28 08:13:35;;;;;;;55.85;22.67;;;5.50;99.90;;;;;;4980556;28;20149;-67
2021/12/28 08:16:00;;;;;;;55.58;23.10;;;5.50;99.90;;;;;;4988445;28;20482;-67
2021/12/28 08:18:26;;;;;;;54.97;22.92;;;5.40;99.90;;;;;;4985743;28;20117;-67
2021/12/28 08:20:52;;;;;;;54.00;22.15;;;5.40;99.90;;;;;;4971948;28;20054;-67
2021/12/28 08:23:17;;;;;;;50.65;21.40;;;5.40;99.90;;;;;;4986910;28;20086;-67
2021/12/28 08:25:43;;;;;;;49.35;21.02;;;5.40;99.90;;;;;;4988452;28;20491;-67
2021/12/28 08:28:09;;;;;;;43.25;19.23;;;5.50;99.90;;;;;;4987654;28;20545;-67
2021/12/28 08:30:36;;;;;;;47.78;20.83;;;5.60;99.90;;;;;;4985978;28;20061;-66
2021/12/28 08:33:07;;;;;;;43.83;20.08;;;5.60;99.90;;;;;;4987889;28;20049;-67
2021/12/28 08:35:34;;;;;;;43.45;19.90;;;5.60;99.90;;;;;;4983927;28;20153;-67
2021/12/28 08:38:00;;;;;;;39.88;19.08;;;5.70;99.90;;;;;;4987791;28;20045;-67
2021/12/28 08:40:26;;;;;;;42.08;18.27;;;5.70;99.90;;;;;;4987322;28;20117;-67
2021/12/28 08:42:54;;;;;;;41.05;18.55;;;5.80;99.90;;;;;;4971704;28;20046;-67
2021/12/28 08:45:20;;;;;;;39.47;19.35;;;5.70;99.90;;;;;;4987590;28;20570;-67
2021/12/28 08:47:47;;;;;;;40.33;18.52;;;5.80;99.90;;;;;;4988589;28;20068;-67
2021/12/28 08:50:14;;;;;;;37.00;17.98;;;5.80;99.90;;;;;;4988299;28;20071;-67
2021/12/28 08:52:41;;;;;;;38.30;17.02;;;5.90;99.90;;;;;;4987614;28;20130;-67
2021/12/28 08:55:07;;;;;;;33.63;17.10;;;5.90;99.90;;;;;;4988568;28;20046;-67
2021/12/28 08:57:32;;;;;;;35.58;17.08;;;5.90;99.90;;;;;;4987862;28;20054;-67
2021/12/28 08:59:58;;;;;;;32.10;15.95;;;6.00;99.90;;;;;;4990007;28;20081;-67
2021/12/28 09:02:24;;;;;;;32.33;15.85;;;6.00;99.90;;;;;;4990598;28;20038;-67
2021/12/28 09:04:51;;;;;;;34.15;15.82;;;6.10;99.90;;;;;;4988125;28;20120;-67
2021/12/28 09:07:18;;;;;;;33.35;15.70;;;6.20;99.90;;;;;;4987959;28;20049;-67
2021/12/28 09:09:45;;;;;;;32.53;15.60;;;6.30;99.90;;;;;;4987557;28;20445;-66
2021/12/28 09:12:11;;;;;;;39.25;16.27;;;6.40;99.90;;;;;;4989432;28;20077;-66
2021/12/28 09:14:37;;;;;;;29.08;14.15;;;6.40;99.90;;;;;;4995040;28;20125;-67
2021/12/28 09:17:03;;;;;;;27.08;13.25;;;6.40;99.90;;;;;;4993539;28;20506;-66
2021/12/28 09:19:30;;;;;;;32.97;14.98;;;7.50;99.90;;;;;;4990340;28;20046;-68
2021/12/28 09:21:56;;;;;;;30.70;13.18;;;6.60;99.90;;;;;;4992729;28;20046;-66
2021/12/28 09:24:21;;;;;;;37.88;14.82;;;6.60;99.90;;;;;;4991277;28;20050;-67
2021/12/28 09:26:47;;;;;;;28.77;14.32;;;6.70;99.90;;;;;;4991105;28;20046;-67
2021/12/28 09:29:13;;;;;;;36.28;13.05;;;6.80;99.90;;;;;;4990297;28;20125;-67
2021/12/28 09:31:38;;;;;;;25.77;12.40;;;6.90;99.90;;;;;;4991718;28;20098;-66
2021/12/28 09:34:04;;;;;;;30.88;13.13;;;7.00;99.90;;;;;;4991408;28;20045;-66
2021/12/28 09:36:30;;;;;;;27.00;12.68;;;7.10;99.90;;;;;;4992214;28;20064;-66
2021/12/28 09:38:55;;;;;;;24.08;11.13;;;7.10;99.90;;;;;;4991678;28;20056;-68
2021/12/28 09:41:21;;;;;;;29.45;12.00;;;7.10;99.90;;;;;;4989777;28;20046;-66
2021/12/28 09:43:47;;;;;;;24.45;10.57;;;7.10;99.90;;;;;;4990369;28;20046;-67
2021/12/28 09:46:13;;;;;;;23.27;10.25;;;7.20;99.90;;;;;;4991586;28;20133;-67
2021/12/28 09:48:39;;;;;;;24.92;10.68;;;7.20;99.90;;;;;;4992351;28;20498;-67
2021/12/28 09:51:06;;;;;;;22.73;9.20;;;7.20;99.90;;;;;;4991566;28;20410;-69
2021/12/28 09:53:31;;;;;;;26.33;10.30;;;7.30;99.90;;;;;;4989726;28;20520;-66
2021/12/28 09:55:57;;;;;;;26.83;9.93;;;7.30;99.90;;;;;;4988257;28;20046;-67
2021/12/28 09:58:23;;;;;;;26.48;9.75;;;7.30;99.90;;;;;;4987141;28;20399;-66
2021/12/28 10:00:49;;;;;;;25.08;10.43;;;7.40;99.90;;;;;;4987380;28;20513;-66
2021/12/28 10:03:15;;;;;;;24.02;9.85;;;7.40;99.90;;;;;;4976145;28;20039;-66
2021/12/28 10:05:41;;;;;;;22.75;10.77;;;7.40;99.90;;;;;;4983264;28;20057;-65
2021/12/28 10:08:07;;;;;;;24.17;10.38;;;7.40;99.90;;;;;;4974261;28;20046;-66
2021/12/28 10:10:37;;;;;;;24.52;10.18;;;7.30;99.90;;;;;;4989813;28;20050;-65
2021/12/28 10:13:06;;;;;;;16.63;9.02;;;7.40;99.90;;;;;;4989391;28;20069;-66
2021/12/28 10:15:35;;;;;;;18.10;8.63;;;7.20;99.90;;;;;;4990966;28;20172;-65
2021/12/28 10:18:07;;;;;;;17.58;8.70;;;7.30;99.90;;;;;;4991393;28;20049;-66
2021/12/28 10:20:39;;;;;;;21.80;9.20;;;7.30;99.90;;;;;;4989815;28;20514;-65
2021/12/28 10:23:11;;;;;;;20.73;9.38;;;7.20;99.90;;;;;;4989465;28;20081;-66
2021/12/28 10:25:48;;;;;;;17.55;9.50;;;7.20;99.90;;;;;;4987611;28;20050;-65
2021/12/28 10:28:21;;;;;;;18.55;9.05;;;7.10;99.90;;;;;;4989293;28;20046;-66
2021/12/28 10:30:54;;;;;;;18.63;8.48;;;7.00;99.90;;;;;;4988674;28;20053;-66
2021/12/28 10:33:22;;;;;;;19.73;8.50;;;7.00;99.90;;;;;;4989671;28;20480;-67
2021/12/28 10:35:57;;;;;;;21.60;8.88;;;7.00;99.90;;;;;;4973317;28;20051;-66
2021/12/28 10:38:27;;;;;;;18.00;9.38;;;7.00;99.90;;;;;;4988033;28;20054;-67
2021/12/28 10:40:55;;;;;;;22.63;8.95;;;7.00;99.90;;;;;;4991342;28;20077;-66
2021/12/28 10:43:27;;;;;;;24.33;9.13;;;6.90;99.90;;;;;;4990134;28;20050;-67
2021/12/28 10:46:00;;;;;;;20.13;8.90;;;6.90;99.90;;;;;;4989123;28;20073;-66
2021/12/28 10:48:30;;;;;;;21.40;8.98;;;6.90;99.90;;;;;;4990851;28;20065;-66
2021/12/28 10:51:01;;;;;;;20.13;8.90;;;7.70;99.90;;;;;;4991042;28;20056;-68
2021/12/28 10:54:22;;;;;;;20.13;9.07;;;6.80;99.90;;;;;;4987961;28;20039;-67
2021/12/28 10:56:51;;;;;;;22.15;9.40;;;6.80;99.90;;;;;;4971501;28;20054;-67
2021/12/28 10:59:24;;;;;;;27.85;9.65;;;6.80;99.90;;;;;;4985600;28;20061;-67
2021/12/28 11:01:49;;;;;;;20.75;8.82;;;6.80;99.90;;;;;;4992367;28;20394;-67
2021/12/28 11:04:15;;;;;;;23.92;9.70;;;6.70;99.90;;;;;;4989099;28;20034;-67
2021/12/28 11:06:47;;;;;;;24.05;9.82;;;6.70;99.90;;;;;;4989491;28;20050;-67
2021/12/28 11:09:19;;;;;;;23.60;9.38;;;6.70;99.90;;;;;;4988770;28;20042;-67
2021/12/28 11:11:46;;;;;;;22.50;10.10;;;6.70;99.90;;;;;;4988994;28;20141;-67
2021/12/28 11:14:23;;;;;;;26.48;9.82;;;6.70;99.90;;;;;;4987477;28;20100;-66
2021/12/28 11:17:00;;;;;;;27.58;10.13;;;6.70;99.90;;;;;;4991343;28;20042;-66
2021/12/28 11:19:31;;;;;;;20.90;9.90;;;6.80;99.90;;;;;;4989516;28;20343;-70
2021/12/28 11:22:03;;;;;;;24.75;11.07;;;6.80;99.90;;;;;;4969119;28;20054;-71
2021/12/28 11:24:35;;;;;;;27.98;10.18;;;6.80;99.90;;;;;;4973416;28;20046;-71
2021/12/28 11:27:02;;;;;;;22.38;10.23;;;6.80;99.90;;;;;;4967887;28;20047;-71
2021/12/28 11:29:34;;;;;;;23.30;10.27;;;6.80;99.90;;;;;;4964551;28;20086;-71
2021/12/28 11:32:04;;;;;;;22.05;9.82;;;6.80;99.90;;;;;;4967480;28;20418;-71
2021/12/28 11:34:31;;;;;;;23.63;10.15;;;6.80;99.90;;;;;;4965087;28;20065;-71
2021/12/28 11:36:59;;;;;;;27.80;10.60;;;6.80;99.90;;;;;;4977650;28;20050;-71
2021/12/28 11:39:30;;;;;;;23.40;10.48;;;6.80;99.90;;;;;;4986321;28;20591;-72
2021/12/28 11:41:57;;;;;;;17.88;10.30;;;6.80;99.90;;;;;;4985549;28;20169;-70
2021/12/28 11:44:27;;;;;;;21.45;10.52;;;6.90;99.90;;;;;;4980417;28;20068;-71
2021/12/28 11:46:55;;;;;;;28.65;11.02;;;6.90;99.90;;;;;;4984426;28;20485;-70
2021/12/28 11:49:25;;;;;;;22.95;10.88;;;6.90;99.90;;;;;;4984782;28;20394;-70
2021/12/28 11:51:52;;;;;;;20.75;10.70;;;6.90;99.90;;;;;;4986803;28;20054;-70
2021/12/28 11:54:19;;;;;;;23.55;12.00;;;7.00;99.90;;;;;;4985328;28;20049;-70
2021/12/28 11:56:49;;;;;;;23.30;11.27;;;7.00;99.90;;;;;;4965055;28;20051;-71
2021/12/28 11:59:28;;;;;;;20.85;10.48;;;7.00;99.90;;;;;;4966402;28;20303;-70
2021/12/28 12:01:57;;;;;;;23.98;11.52;;;7.10;99.90;;;;;;4988216;28;20403;-71
2021/12/28 12:04:32;;;;;;;26.60;10.95;;;7.10;99.90;;;;;;4986200;28;20936;-67
2021/12/28 12:06:58;;;;;;;30.48;12.73;;;7.10;99.90;;;;;;4989906;28;20050;-67
2021/12/28 12:09:27;;;;;;;24.95;12.48;;;7.10;99.90;;;;;;4985289;28;20096;-67
2021/12/28 12:12:15;;;;;;;22.77;12.23;;;7.10;99.90;;;;;;4991635;28;20054;-67
2021/12/28 12:14:50;;;;;;;27.60;12.82;;;7.10;99.90;;;;;;4986743;28;20061;-67
2021/12/28 12:17:28;;;;;;;23.30;13.10;;;7.20;99.90;;;;;;4988546;28;20046;-67
2021/12/28 12:19:59;;;;;;;24.30;12.90;;;7.20;99.90;;;;;;4987649;28;20050;-67
2021/12/28 12:22:30;;;;;;;23.20;12.27;;;7.20;99.90;;;;;;4986822;28;20088;-67
2021/12/28 12:25:00;;;;;;;18.50;11.25;;;7.30;99.90;;;;;;4987310;28;20046;-67
2021/12/28 12:27:45;;;;;;;28.58;13.32;;;7.30;99.90;;;;;;4988813;28;20050;-67
2021/12/28 12:30:23;;;;;;;25.35;13.38;;;7.30;99.90;;;;;;4989400;28;20049;-67
2021/12/28 12:33:01;;;;;;;25.42;12.57;;;7.30;99.90;;;;;;4971220;28;20129;-67
2021/12/28 12:35:45;;;;;;;25.55;13.25;;;7.30;99.90;;;;;;4988565;28;20054;-67
2021/12/28 12:38:16;;;;;;;23.65;11.93;;;7.30;99.90;;;;;;4988320;28;20100;-67
2021/12/28 12:41:20;;;;;;;25.98;12.75;;;7.30;99.90;;;;;;4989191;28;20065;-67